sensor_id;sensor_type;location;lat;lon;timestamp;P1;durP1;ratioP1;P2;durP2;ratioP2
4519;SDS011;2272;49.226;8.108;2023-01-15T00:01:04;0.90;;;0.90;;
4519;SDS011;2272;49.226;8.108;2023-01-15T00:03:32;2.97;;;1.00;;
4519;SDS011;2272;49.226;8.108;2023-01-15T00:06:00;1.03;;;1.03;;
4519;SDS011;2272;49.226;8.108;2023-01-15T00:08:28;0.77;;;0.77;;
4519;SDS011;2272;49.226;8.108;2023-01-15T00:10:54;0.73;;;0.73;;
4519;SDS011;2272;49.226;8.108;2023-01-15T00:13:21;0.60;;;0.60;;
4519;SDS011;2272;49.226;8.108;2023-01-15T00:15:48;0.87;;;0.87;;
4519;SDS011;2272;49.226;8.108;2023-01-15T00:18:14;1.00;;;0.90;;
4519;SDS011;2272;49.226;8.108;2023-01-15T00:20:42;1.70;;;0.60;;
4519;SDS011;2272;49.226;8.108;2023-01-15T00:23:09;0.70;;;0.70;;
4519;SDS011;2272;49.226;8.108;2023-01-15T00:25:56;0.87;;;0.87;;
4519;SDS011;2272;49.226;8.108;2023-01-15T00:28:40;0.60;;;0.60;;
4519;SDS011;2272;49.226;8.108;2023-01-15T00:31:07;0.90;;;0.90;;
4519;SDS011;2272;49.226;8.108;2023-01-15T00:33:33;0.63;;;0.63;;
4519;SDS011;2272;49.226;8.108;2023-01-15T00:36:02;1.40;;;0.93;;
4519;SDS011;2272;49.226;8.108;2023-01-15T00:38:28;1.10;;;1.10;;
4519;SDS011;2272;49.226;8.108;2023-01-15T00:40:55;0.67;;;0.67;;
4519;SDS011;2272;49.226;8.108;2023-01-15T00:43:22;0.93;;;0.93;;
4519;SDS011;2272;49.226;8.108;2023-01-15T00:45:48;0.70;;;0.70;;
4519;SDS011;2272;49.226;8.108;2023-01-15T00:48:15;1.10;;;1.00;;
4519;SDS011;2272;49.226;8.108;2023-01-15T00:50:42;0.80;;;0.80;;
4519;SDS011;2272;49.226;8.108;2023-01-15T00:53:10;1.43;;;0.83;;
4519;SDS011;2272;49.226;8.108;2023-01-15T00:55:36;0.80;;;0.80;;
4519;SDS011;2272;49.226;8.108;2023-01-15T00:58:03;0.60;;;0.60;;
4519;SDS011;2272;49.226;8.108;2023-01-15T01:00:29;0.80;;;0.80;;
4519;SDS011;2272;49.226;8.108;2023-01-15T01:02:56;0.87;;;0.87;;
4519;SDS011;2272;49.226;8.108;2023-01-15T01:05:23;2.30;;;1.07;;
4519;SDS011;2272;49.226;8.108;2023-01-15T01:07:49;0.70;;;0.70;;
4519;SDS011;2272;49.226;8.108;2023-01-15T01:10:18;0.83;;;0.83;;
4519;SDS011;2272;49.226;8.108;2023-01-15T01:12:45;0.70;;;0.70;;
4519;SDS011;2272;49.226;8.108;2023-01-15T01:15:15;0.90;;;0.90;;
4519;SDS011;2272;49.226;8.108;2023-01-15T01:17:42;1.23;;;1.13;;
4519;SDS011;2272;49.226;8.108;2023-01-15T01:20:11;0.60;;;0.60;;
4519;SDS011;2272;49.226;8.108;2023-01-15T01:22:37;0.77;;;0.77;;
4519;SDS011;2272;49.226;8.108;2023-01-15T01:25:04;0.60;;;0.60;;
4519;SDS011;2272;49.226;8.108;2023-01-15T01:27:33;0.70;;;0.70;;
4519;SDS011;2272;49.226;8.108;2023-01-15T01:30:00;0.80;;;0.70;;
4519;SDS011;2272;49.226;8.108;2023-01-15T01:32:27;0.50;;;0.50;;
4519;SDS011;2272;49.226;8.108;2023-01-15T01:34:53;0.50;;;0.50;;
4519;SDS011;2272;49.226;8.108;2023-01-15T01:37:20;1.27;;;0.80;;
4519;SDS011;2272;49.226;8.108;2023-01-15T01:39:46;2.53;;;0.60;;
4519;SDS011;2272;49.226;8.108;2023-01-15T01:42:14;0.40;;;0.40;;
4519;SDS011;2272;49.226;8.108;2023-01-15T01:45:03;0.40;;;0.40;;
4519;SDS011;2272;49.226;8.108;2023-01-15T01:47:38;0.40;;;0.40;;
4519;SDS011;2272;49.226;8.108;2023-01-15T01:50:07;0.50;;;0.50;;
4519;SDS011;2272;49.226;8.108;2023-01-15T01:52:38;0.50;;;0.50;;
4519;SDS011;2272;49.226;8.108;2023-01-15T01:55:08;0.50;;;0.50;;
4519;SDS011;2272;49.226;8.108;2023-01-15T01:57:37;0.50;;;0.50;;
4519;SDS011;2272;49.226;8.108;2023-01-15T02:00:06;0.50;;;0.50;;
4519;SDS011;2272;49.226;8.108;2023-01-15T02:02:35;0.40;;;0.40;;
4519;SDS011;2272;49.226;8.108;2023-01-15T02:05:03;0.63;;;0.63;;
4519;SDS011;2272;49.226;8.108;2023-01-15T02:07:32;0.40;;;0.40;;
4519;SDS011;2272;49.226;8.108;2023-01-15T02:09:59;0.50;;;0.50;;
4519;SDS011;2272;49.226;8.108;2023-01-15T02:12:27;0.50;;;0.50;;
4519;SDS011;2272;49.226;8.108;2023-01-15T02:15:01;0.50;;;0.50;;
4519;SDS011;2272;49.226;8.108;2023-01-15T02:17:37;2.40;;;1.10;;
4519;SDS011;2272;49.226;8.108;2023-01-15T02:20:22;0.50;;;0.50;;
4519;SDS011;2272;49.226;8.108;2023-01-15T02:23:01;0.53;;;0.53;;
4519;SDS011;2272;49.226;8.108;2023-01-15T02:25:46;0.50;;;0.50;;
4519;SDS011;2272;49.226;8.108;2023-01-15T02:28:27;0.50;;;0.50;;
4519;SDS011;2272;49.226;8.108;2023-01-15T02:30:58;0.50;;;0.50;;
4519;SDS011;2272;49.226;8.108;2023-01-15T02:33:27;1.90;;;0.53;;
4519;SDS011;2272;49.226;8.108;2023-01-15T02:35:58;0.60;;;0.60;;
4519;SDS011;2272;49.226;8.108;2023-01-15T02:38:27;1.27;;;1.27;;
4519;SDS011;2272;49.226;8.108;2023-01-15T02:40:58;7.10;;;6.47;;
4519;SDS011;2272;49.226;8.108;2023-01-15T02:43:31;3.57;;;3.27;;
4519;SDS011;2272;49.226;8.108;2023-01-15T02:45:59;3.93;;;3.53;;
4519;SDS011;2272;49.226;8.108;2023-01-15T02:48:27;7.80;;;4.00;;
4519;SDS011;2272;49.226;8.108;2023-01-15T02:50:57;4.03;;;3.70;;
4519;SDS011;2272;49.226;8.108;2023-01-15T02:53:27;2.33;;;2.23;;
4519;SDS011;2272;49.226;8.108;2023-01-15T02:55:58;1.37;;;1.37;;
4519;SDS011;2272;49.226;8.108;2023-01-15T02:58:30;0.70;;;0.70;;
4519;SDS011;2272;49.226;8.108;2023-01-15T03:01:01;0.70;;;0.70;;
4519;SDS011;2272;49.226;8.108;2023-01-15T03:03:33;0.40;;;0.40;;
4519;SDS011;2272;49.226;8.108;2023-01-15T03:06:04;0.40;;;0.40;;
4519;SDS011;2272;49.226;8.108;2023-01-15T03:08:35;0.57;;;0.50;;
4519;SDS011;2272;49.226;8.108;2023-01-15T03:11:04;0.40;;;0.40;;
4519;SDS011;2272;49.226;8.108;2023-01-15T03:13:36;0.40;;;0.40;;
4519;SDS011;2272;49.226;8.108;2023-01-15T03:16:12;0.40;;;0.40;;
4519;SDS011;2272;49.226;8.108;2023-01-15T03:19:04;0.40;;;0.40;;
4519;SDS011;2272;49.226;8.108;2023-01-15T03:21:38;0.40;;;0.40;;
4519;SDS011;2272;49.226;8.108;2023-01-15T03:24:13;0.40;;;0.40;;
4519;SDS011;2272;49.226;8.108;2023-01-15T03:26:44;0.40;;;0.40;;
4519;SDS011;2272;49.226;8.108;2023-01-15T03:29:12;0.40;;;0.40;;
4519;SDS011;2272;49.226;8.108;2023-01-15T03:31:39;0.40;;;0.40;;
4519;SDS011;2272;49.226;8.108;2023-01-15T03:34:08;0.40;;;0.40;;
4519;SDS011;2272;49.226;8.108;2023-01-15T03:36:36;0.40;;;0.40;;
4519;SDS011;2272;49.226;8.108;2023-01-15T03:39:03;0.40;;;0.30;;
4519;SDS011;2272;49.226;8.108;2023-01-15T03:41:37;0.50;;;0.40;;
4519;SDS011;2272;49.226;8.108;2023-01-15T03:44:19;0.40;;;0.40;;
4519;SDS011;2272;49.226;8.108;2023-01-15T03:46:57;0.40;;;0.40;;
4519;SDS011;2272;49.226;8.108;2023-01-15T03:49:33;0.40;;;0.40;;
4519;SDS011;2272;49.226;8.108;2023-01-15T03:52:07;1.17;;;0.50;;
4519;SDS011;2272;49.226;8.108;2023-01-15T03:54:41;0.50;;;0.50;;
4519;SDS011;2272;49.226;8.108;2023-01-15T03:57:14;0.40;;;0.40;;
4519;SDS011;2272;49.226;8.108;2023-01-15T03:59:48;0.40;;;0.40;;
4519;SDS011;2272;49.226;8.108;2023-01-15T04:02:18;0.40;;;0.40;;
4519;SDS011;2272;49.226;8.108;2023-01-15T04:04:46;0.30;;;0.30;;
4519;SDS011;2272;49.226;8.108;2023-01-15T04:07:15;0.40;;;0.40;;
4519;SDS011;2272;49.226;8.108;2023-01-15T04:09:43;0.40;;;0.40;;
4519;SDS011;2272;49.226;8.108;2023-01-15T04:12:09;0.40;;;0.40;;
4519;SDS011;2272;49.226;8.108;2023-01-15T04:14:36;0.90;;;0.43;;
4519;SDS011;2272;49.226;8.108;2023-01-15T04:17:04;0.40;;;0.40;;
4519;SDS011;2272;49.226;8.108;2023-01-15T04:19:31;0.50;;;0.50;;
4519;SDS011;2272;49.226;8.108;2023-01-15T04:21:58;0.40;;;0.40;;
4519;SDS011;2272;49.226;8.108;2023-01-15T04:24:25;0.97;;;0.57;;
4519;SDS011;2272;49.226;8.108;2023-01-15T04:26:52;0.50;;;0.50;;
4519;SDS011;2272;49.226;8.108;2023-01-15T04:29:18;4.73;;;0.77;;
4519;SDS011;2272;49.226;8.108;2023-01-15T04:31:45;0.40;;;0.40;;
4519;SDS011;2272;49.226;8.108;2023-01-15T04:34:13;0.40;;;0.40;;
4519;SDS011;2272;49.226;8.108;2023-01-15T04:36:40;0.40;;;0.40;;
4519;SDS011;2272;49.226;8.108;2023-01-15T04:39:08;0.40;;;0.40;;
4519;SDS011;2272;49.226;8.108;2023-01-15T04:41:34;1.57;;;0.50;;
4519;SDS011;2272;49.226;8.108;2023-01-15T04:44:19;0.70;;;0.40;;
4519;SDS011;2272;49.226;8.108;2023-01-15T04:46:45;0.40;;;0.40;;
4519;SDS011;2272;49.226;8.108;2023-01-15T04:49:14;0.40;;;0.40;;
4519;SDS011;2272;49.226;8.108;2023-01-15T04:51:42;0.50;;;0.50;;
4519;SDS011;2272;49.226;8.108;2023-01-15T04:54:11;0.40;;;0.40;;
4519;SDS011;2272;49.226;8.108;2023-01-15T04:56:39;0.40;;;0.40;;
4519;SDS011;2272;49.226;8.108;2023-01-15T04:59:07;0.40;;;0.40;;
4519;SDS011;2272;49.226;8.108;2023-01-15T05:01:34;0.40;;;0.40;;
4519;SDS011;2272;49.226;8.108;2023-01-15T05:04:02;1.27;;;0.40;;
4519;SDS011;2272;49.226;8.108;2023-01-15T05:06:31;0.40;;;0.40;;
4519;SDS011;2272;49.226;8.108;2023-01-15T05:08:58;0.50;;;0.50;;
4519;SDS011;2272;49.226;8.108;2023-01-15T05:11:25;0.40;;;0.40;;
4519;SDS011;2272;49.226;8.108;2023-01-15T05:13:52;0.50;;;0.50;;
4519;SDS011;2272;49.226;8.108;2023-01-15T05:16:19;0.40;;;0.40;;
4519;SDS011;2272;49.226;8.108;2023-01-15T05:18:48;0.70;;;0.40;;
4519;SDS011;2272;49.226;8.108;2023-01-15T05:21:17;0.60;;;0.50;;
4519;SDS011;2272;49.226;8.108;2023-01-15T05:23:47;0.40;;;0.40;;
4519;SDS011;2272;49.226;8.108;2023-01-15T05:26:14;3.33;;;0.43;;
4519;SDS011;2272;49.226;8.108;2023-01-15T05:28:41;0.43;;;0.40;;
4519;SDS011;2272;49.226;8.108;2023-01-15T05:31:09;0.40;;;0.40;;
4519;SDS011;2272;49.226;8.108;2023-01-15T05:33:37;0.40;;;0.40;;
4519;SDS011;2272;49.226;8.108;2023-01-15T05:36:05;0.40;;;0.40;;
4519;SDS011;2272;49.226;8.108;2023-01-15T05:38:33;0.60;;;0.57;;
4519;SDS011;2272;49.226;8.108;2023-01-15T05:41:03;2.50;;;0.43;;
4519;SDS011;2272;49.226;8.108;2023-01-15T05:43:51;0.40;;;0.40;;
4519;SDS011;2272;49.226;8.108;2023-01-15T05:46:19;1.00;;;0.90;;
4519;SDS011;2272;49.226;8.108;2023-01-15T05:48:46;0.40;;;0.40;;
4519;SDS011;2272;49.226;8.108;2023-01-15T05:51:13;0.40;;;0.40;;
4519;SDS011;2272;49.226;8.108;2023-01-15T05:53:40;0.70;;;0.70;;
4519;SDS011;2272;49.226;8.108;2023-01-15T05:56:08;0.40;;;0.40;;
4519;SDS011;2272;49.226;8.108;2023-01-15T05:58:35;0.40;;;0.40;;
4519;SDS011;2272;49.226;8.108;2023-01-15T06:01:04;0.40;;;0.40;;
4519;SDS011;2272;49.226;8.108;2023-01-15T06:03:32;1.50;;;0.50;;
4519;SDS011;2272;49.226;8.108;2023-01-15T06:05:59;0.50;;;0.50;;
4519;SDS011;2272;49.226;8.108;2023-01-15T06:08:25;0.53;;;0.40;;
4519;SDS011;2272;49.226;8.108;2023-01-15T06:10:52;0.60;;;0.50;;
4519;SDS011;2272;49.226;8.108;2023-01-15T06:13:20;1.33;;;0.57;;
4519;SDS011;2272;49.226;8.108;2023-01-15T06:15:47;0.40;;;0.40;;
4519;SDS011;2272;49.226;8.108;2023-01-15T06:18:14;0.50;;;0.50;;
4519;SDS011;2272;49.226;8.108;2023-01-15T06:20:41;2.60;;;0.40;;
4519;SDS011;2272;49.226;8.108;2023-01-15T06:23:08;0.40;;;0.40;;
4519;SDS011;2272;49.226;8.108;2023-01-15T06:25:34;0.83;;;0.40;;
4519;SDS011;2272;49.226;8.108;2023-01-15T06:28:01;1.13;;;0.83;;
4519;SDS011;2272;49.226;8.108;2023-01-15T06:30:30;2.67;;;0.50;;
4519;SDS011;2272;49.226;8.108;2023-01-15T06:32:57;0.40;;;0.40;;
4519;SDS011;2272;49.226;8.108;2023-01-15T06:35:23;0.40;;;0.40;;
4519;SDS011;2272;49.226;8.108;2023-01-15T06:37:50;0.50;;;0.50;;
4519;SDS011;2272;49.226;8.108;2023-01-15T06:40:17;0.40;;;0.40;;
4519;SDS011;2272;49.226;8.108;2023-01-15T06:42:44;0.43;;;0.43;;
4519;SDS011;2272;49.226;8.108;2023-01-15T06:45:31;0.40;;;0.40;;
4519;SDS011;2272;49.226;8.108;2023-01-15T06:48:19;0.40;;;0.40;;
4519;SDS011;2272;49.226;8.108;2023-01-15T06:50:46;0.60;;;0.50;;
4519;SDS011;2272;49.226;8.108;2023-01-15T06:53:13;0.50;;;0.50;;
4519;SDS011;2272;49.226;8.108;2023-01-15T06:55:39;0.40;;;0.40;;
4519;SDS011;2272;49.226;8.108;2023-01-15T06:58:06;0.40;;;0.40;;
4519;SDS011;2272;49.226;8.108;2023-01-15T07:00:34;0.40;;;0.40;;
4519;SDS011;2272;49.226;8.108;2023-01-15T07:03:00;0.40;;;0.40;;
4519;SDS011;2272;49.226;8.108;2023-01-15T07:05:28;0.50;;;0.50;;
4519;SDS011;2272;49.226;8.108;2023-01-15T07:07:55;1.10;;;1.10;;
4519;SDS011;2272;49.226;8.108;2023-01-15T07:10:22;0.40;;;0.40;;
4519;SDS011;2272;49.226;8.108;2023-01-15T07:12:49;0.40;;;0.40;;
4519;SDS011;2272;49.226;8.108;2023-01-15T07:15:16;0.60;;;0.60;;
4519;SDS011;2272;49.226;8.108;2023-01-15T07:17:44;0.50;;;0.50;;
4519;SDS011;2272;49.226;8.108;2023-01-15T07:20:11;0.40;;;0.40;;
4519;SDS011;2272;49.226;8.108;2023-01-15T07:22:38;0.50;;;0.50;;
4519;SDS011;2272;49.226;8.108;2023-01-15T07:25:05;0.40;;;0.40;;
4519;SDS011;2272;49.226;8.108;2023-01-15T07:27:33;0.50;;;0.40;;
4519;SDS011;2272;49.226;8.108;2023-01-15T07:29:59;0.40;;;0.40;;
4519;SDS011;2272;49.226;8.108;2023-01-15T07:32:26;0.40;;;0.40;;
4519;SDS011;2272;49.226;8.108;2023-01-15T07:34:54;0.40;;;0.40;;
4519;SDS011;2272;49.226;8.108;2023-01-15T07:37:21;0.50;;;0.50;;
4519;SDS011;2272;49.226;8.108;2023-01-15T07:39:47;0.40;;;0.40;;
4519;SDS011;2272;49.226;8.108;2023-01-15T07:42:14;0.63;;;0.40;;
4519;SDS011;2272;49.226;8.108;2023-01-15T07:44:58;0.40;;;0.40;;
4519;SDS011;2272;49.226;8.108;2023-01-15T07:47:42;0.70;;;0.67;;
4519;SDS011;2272;49.226;8.108;2023-01-15T07:50:27;0.50;;;0.50;;
4519;SDS011;2272;49.226;8.108;2023-01-15T07:52:54;0.40;;;0.40;;
4519;SDS011;2272;49.226;8.108;2023-01-15T07:55:21;0.40;;;0.40;;
4519;SDS011;2272;49.226;8.108;2023-01-15T07:57:48;0.43;;;0.43;;
4519;SDS011;2272;49.226;8.108;2023-01-15T08:00:18;0.60;;;0.40;;
4519;SDS011;2272;49.226;8.108;2023-01-15T08:02:46;0.60;;;0.50;;
4519;SDS011;2272;49.226;8.108;2023-01-15T08:05:14;1.43;;;0.60;;
4519;SDS011;2272;49.226;8.108;2023-01-15T08:07:43;0.40;;;0.40;;
4519;SDS011;2272;49.226;8.108;2023-01-15T08:10:11;0.50;;;0.40;;
4519;SDS011;2272;49.226;8.108;2023-01-15T08:12:38;0.40;;;0.40;;
4519;SDS011;2272;49.226;8.108;2023-01-15T08:15:23;0.50;;;0.40;;
4519;SDS011;2272;49.226;8.108;2023-01-15T08:17:50;1.23;;;0.60;;
4519;SDS011;2272;49.226;8.108;2023-01-15T08:20:18;0.80;;;0.70;;
4519;SDS011;2272;49.226;8.108;2023-01-15T08:22:47;0.40;;;0.40;;
4519;SDS011;2272;49.226;8.108;2023-01-15T08:25:14;0.47;;;0.47;;
4519;SDS011;2272;49.226;8.108;2023-01-15T08:27:42;0.50;;;0.50;;
4519;SDS011;2272;49.226;8.108;2023-01-15T08:30:10;0.40;;;0.40;;
4519;SDS011;2272;49.226;8.108;2023-01-15T08:32:40;1.80;;;0.50;;
4519;SDS011;2272;49.226;8.108;2023-01-15T08:35:07;1.00;;;0.73;;
4519;SDS011;2272;49.226;8.108;2023-01-15T08:37:34;2.00;;;0.60;;
4519;SDS011;2272;49.226;8.108;2023-01-15T08:40:02;12.97;;;0.67;;
4519;SDS011;2272;49.226;8.108;2023-01-15T08:42:29;1.13;;;0.70;;
4519;SDS011;2272;49.226;8.108;2023-01-15T08:44:56;0.93;;;0.93;;
4519;SDS011;2272;49.226;8.108;2023-01-15T08:47:22;0.90;;;0.90;;
4519;SDS011;2272;49.226;8.108;2023-01-15T08:49:49;2.90;;;0.83;;
4519;SDS011;2272;49.226;8.108;2023-01-15T08:52:16;0.97;;;0.50;;
4519;SDS011;2272;49.226;8.108;2023-01-15T08:54:42;0.60;;;0.60;;
4519;SDS011;2272;49.226;8.108;2023-01-15T08:57:10;0.60;;;0.60;;
4519;SDS011;2272;49.226;8.108;2023-01-15T08:59:37;3.23;;;0.70;;
4519;SDS011;2272;49.226;8.108;2023-01-15T09:02:08;1.20;;;0.80;;
4519;SDS011;2272;49.226;8.108;2023-01-15T09:04:36;0.60;;;0.60;;
4519;SDS011;2272;49.226;8.108;2023-01-15T09:07:03;0.80;;;0.80;;
4519;SDS011;2272;49.226;8.108;2023-01-15T09:09:30;5.23;;;0.90;;
4519;SDS011;2272;49.226;8.108;2023-01-15T09:11:58;1.00;;;0.70;;
4519;SDS011;2272;49.226;8.108;2023-01-15T09:14:26;0.50;;;0.50;;
4519;SDS011;2272;49.226;8.108;2023-01-15T09:16:53;0.83;;;0.80;;
4519;SDS011;2272;49.226;8.108;2023-01-15T09:19:19;0.57;;;0.57;;
4519;SDS011;2272;49.226;8.108;2023-01-15T09:21:46;0.83;;;0.60;;
4519;SDS011;2272;49.226;8.108;2023-01-15T09:24:13;1.53;;;1.23;;
4519;SDS011;2272;49.226;8.108;2023-01-15T09:26:40;1.40;;;1.13;;
4519;SDS011;2272;49.226;8.108;2023-01-15T09:29:07;1.10;;;1.10;;
4519;SDS011;2272;49.226;8.108;2023-01-15T09:31:35;2.20;;;2.10;;
4519;SDS011;2272;49.226;8.108;2023-01-15T09:34:01;6.43;;;2.90;;
4519;SDS011;2272;49.226;8.108;2023-01-15T09:36:29;1.23;;;1.10;;
4519;SDS011;2272;49.226;8.108;2023-01-15T09:38:57;4.20;;;1.70;;
4519;SDS011;2272;49.226;8.108;2023-01-15T09:41:25;1.93;;;1.27;;
4519;SDS011;2272;49.226;8.108;2023-01-15T09:44:20;2.00;;;1.90;;
4519;SDS011;2272;49.226;8.108;2023-01-15T09:47:00;0.90;;;0.90;;
4519;SDS011;2272;49.226;8.108;2023-01-15T09:49:36;5.50;;;4.23;;
4519;SDS011;2272;49.226;8.108;2023-01-15T09:52:18;1.67;;;1.57;;
4519;SDS011;2272;49.226;8.108;2023-01-15T09:54:53;0.97;;;0.97;;
4519;SDS011;2272;49.226;8.108;2023-01-15T09:57:28;1.37;;;1.30;;
4519;SDS011;2272;49.226;8.108;2023-01-15T09:59:56;1.67;;;1.57;;
4519;SDS011;2272;49.226;8.108;2023-01-15T10:02:28;1.50;;;1.50;;
4519;SDS011;2272;49.226;8.108;2023-01-15T10:05:00;3.20;;;1.67;;
4519;SDS011;2272;49.226;8.108;2023-01-15T10:07:33;7.80;;;4.13;;
4519;SDS011;2272;49.226;8.108;2023-01-15T10:10:09;6.50;;;5.30;;
4519;SDS011;2272;49.226;8.108;2023-01-15T10:12:40;2.97;;;2.27;;
4519;SDS011;2272;49.226;8.108;2023-01-15T10:15:17;6.30;;;5.20;;
4519;SDS011;2272;49.226;8.108;2023-01-15T10:17:50;1.47;;;1.37;;
4519;SDS011;2272;49.226;8.108;2023-01-15T10:20:27;2.20;;;2.00;;
4519;SDS011;2272;49.226;8.108;2023-01-15T10:23:09;2.60;;;2.40;;
4519;SDS011;2272;49.226;8.108;2023-01-15T10:25:51;4.27;;;2.17;;
4519;SDS011;2272;49.226;8.108;2023-01-15T10:28:24;2.93;;;2.73;;
4519;SDS011;2272;49.226;8.108;2023-01-15T10:30:54;1.63;;;1.17;;
4519;SDS011;2272;49.226;8.108;2023-01-15T10:33:30;2.50;;;1.50;;
4519;SDS011;2272;49.226;8.108;2023-01-15T10:36:12;0.90;;;0.90;;
4519;SDS011;2272;49.226;8.108;2023-01-15T10:38:46;1.00;;;1.00;;
4519;SDS011;2272;49.226;8.108;2023-01-15T10:44:16;1.47;;;1.00;;
4519;SDS011;2272;49.226;8.108;2023-01-15T10:46:48;1.23;;;1.00;;
4519;SDS011;2272;49.226;8.108;2023-01-15T10:49:19;1.73;;;0.93;;
4519;SDS011;2272;49.226;8.108;2023-01-15T10:51:46;2.33;;;1.33;;
4519;SDS011;2272;49.226;8.108;2023-01-15T10:54:20;9.53;;;6.13;;
4519;SDS011;2272;49.226;8.108;2023-01-15T10:56:52;3.50;;;3.20;;
4519;SDS011;2272;49.226;8.108;2023-01-15T10:59:29;4.37;;;2.60;;
4519;SDS011;2272;49.226;8.108;2023-01-15T11:02:02;2.80;;;2.60;;
4519;SDS011;2272;49.226;8.108;2023-01-15T11:04:41;10.63;;;7.70;;
4519;SDS011;2272;49.226;8.108;2023-01-15T11:07:08;16.87;;;11.17;;
4519;SDS011;2272;49.226;8.108;2023-01-15T11:09:36;7.70;;;6.07;;
4519;SDS011;2272;49.226;8.108;2023-01-15T11:12:11;2.23;;;2.13;;
4519;SDS011;2272;49.226;8.108;2023-01-15T11:15:11;3.67;;;3.40;;
4519;SDS011;2272;49.226;8.108;2023-01-15T11:17:57;1.70;;;1.60;;
4519;SDS011;2272;49.226;8.108;2023-01-15T11:20:46;2.30;;;2.00;;
4519;SDS011;2272;49.226;8.108;2023-01-15T11:23:15;7.20;;;2.63;;
4519;SDS011;2272;49.226;8.108;2023-01-15T11:25:48;3.03;;;2.83;;
4519;SDS011;2272;49.226;8.108;2023-01-15T11:28:17;6.47;;;4.87;;
4519;SDS011;2272;49.226;8.108;2023-01-15T11:30:54;10.07;;;6.70;;
4519;SDS011;2272;49.226;8.108;2023-01-15T11:33:22;14.47;;;8.77;;
4519;SDS011;2272;49.226;8.108;2023-01-15T11:35:52;12.90;;;7.90;;
4519;SDS011;2272;49.226;8.108;2023-01-15T11:38:22;10.13;;;7.17;;
4519;SDS011;2272;49.226;8.108;2023-01-15T11:40:51;9.43;;;5.17;;
4519;SDS011;2272;49.226;8.108;2023-01-15T11:43:19;7.70;;;4.30;;
4519;SDS011;2272;49.226;8.108;2023-01-15T11:46:04;5.30;;;3.67;;
4519;SDS011;2272;49.226;8.108;2023-01-15T11:49:06;2.80;;;2.60;;
4519;SDS011;2272;49.226;8.108;2023-01-15T11:51:53;4.70;;;2.23;;
4519;SDS011;2272;49.226;8.108;2023-01-15T11:54:22;2.20;;;2.00;;
4519;SDS011;2272;49.226;8.108;2023-01-15T11:56:50;3.93;;;1.80;;
4519;SDS011;2272;49.226;8.108;2023-01-15T11:59:17;2.50;;;2.03;;
4519;SDS011;2272;49.226;8.108;2023-01-15T12:01:46;3.17;;;2.60;;
4519;SDS011;2272;49.226;8.108;2023-01-15T12:04:23;9.93;;;6.20;;
4519;SDS011;2272;49.226;8.108;2023-01-15T12:06:57;8.57;;;5.83;;
4519;SDS011;2272;49.226;8.108;2023-01-15T12:09:26;3.30;;;2.40;;
4519;SDS011;2272;49.226;8.108;2023-01-15T12:12:03;1.70;;;1.60;;
4519;SDS011;2272;49.226;8.108;2023-01-15T12:14:44;5.90;;;3.47;;
4519;SDS011;2272;49.226;8.108;2023-01-15T12:17:24;2.23;;;2.13;;
4519;SDS011;2272;49.226;8.108;2023-01-15T12:20:02;4.90;;;3.90;;
4519;SDS011;2272;49.226;8.108;2023-01-15T12:22:49;8.70;;;3.83;;
4519;SDS011;2272;49.226;8.108;2023-01-15T12:25:29;4.20;;;2.77;;
4519;SDS011;2272;49.226;8.108;2023-01-15T12:28:03;6.00;;;4.03;;
4519;SDS011;2272;49.226;8.108;2023-01-15T12:30:37;4.63;;;1.33;;
4519;SDS011;2272;49.226;8.108;2023-01-15T12:33:16;2.30;;;1.57;;
4519;SDS011;2272;49.226;8.108;2023-01-15T12:35:49;6.37;;;2.00;;
4519;SDS011;2272;49.226;8.108;2023-01-15T12:38:23;3.87;;;1.83;;
4519;SDS011;2272;49.226;8.108;2023-01-15T12:41:01;1.77;;;1.67;;
4519;SDS011;2272;49.226;8.108;2023-01-15T12:43:33;4.83;;;1.37;;
4519;SDS011;2272;49.226;8.108;2023-01-15T12:46:18;1.40;;;0.83;;
4519;SDS011;2272;49.226;8.108;2023-01-15T12:48:53;7.20;;;3.40;;
4519;SDS011;2272;49.226;8.108;2023-01-15T12:51:28;3.10;;;2.83;;
4519;SDS011;2272;49.226;8.108;2023-01-15T12:54:02;4.13;;;0.90;;
4519;SDS011;2272;49.226;8.108;2023-01-15T12:56:36;2.30;;;1.40;;
4519;SDS011;2272;49.226;8.108;2023-01-15T12:59:13;6.60;;;1.47;;
4519;SDS011;2272;49.226;8.108;2023-01-15T13:01:47;2.63;;;1.73;;
4519;SDS011;2272;49.226;8.108;2023-01-15T13:04:19;7.90;;;2.20;;
4519;SDS011;2272;49.226;8.108;2023-01-15T13:06:52;2.03;;;1.07;;
4519;SDS011;2272;49.226;8.108;2023-01-15T13:09:28;3.93;;;2.10;;
4519;SDS011;2272;49.226;8.108;2023-01-15T13:12:01;6.00;;;2.63;;
4519;SDS011;2272;49.226;8.108;2023-01-15T13:14:28;2.20;;;1.47;;
4519;SDS011;2272;49.226;8.108;2023-01-15T13:16:56;6.97;;;3.53;;
4519;SDS011;2272;49.226;8.108;2023-01-15T13:19:31;1.10;;;1.07;;
4519;SDS011;2272;49.226;8.108;2023-01-15T13:22:07;4.10;;;1.97;;
4519;SDS011;2272;49.226;8.108;2023-01-15T13:24:59;4.13;;;2.93;;
4519;SDS011;2272;49.226;8.108;2023-01-15T13:27:50;1.50;;;1.40;;
4519;SDS011;2272;49.226;8.108;2023-01-15T13:30:28;4.50;;;2.60;;
4519;SDS011;2272;49.226;8.108;2023-01-15T13:33:12;2.57;;;2.33;;
4519;SDS011;2272;49.226;8.108;2023-01-15T13:35:48;2.87;;;2.47;;
4519;SDS011;2272;49.226;8.108;2023-01-15T13:38:18;5.70;;;3.33;;
4519;SDS011;2272;49.226;8.108;2023-01-15T13:40:49;3.93;;;2.50;;
4519;SDS011;2272;49.226;8.108;2023-01-15T13:43:22;11.03;;;1.90;;
4519;SDS011;2272;49.226;8.108;2023-01-15T13:45:57;3.53;;;1.60;;
4519;SDS011;2272;49.226;8.108;2023-01-15T13:48:26;5.30;;;1.17;;
4519;SDS011;2272;49.226;8.108;2023-01-15T13:50:57;4.40;;;2.73;;
4519;SDS011;2272;49.226;8.108;2023-01-15T13:53:25;4.63;;;3.70;;
4519;SDS011;2272;49.226;8.108;2023-01-15T13:55:56;2.60;;;2.17;;
4519;SDS011;2272;49.226;8.108;2023-01-15T13:58:27;5.60;;;1.80;;
4519;SDS011;2272;49.226;8.108;2023-01-15T14:01:05;2.93;;;1.90;;
4519;SDS011;2272;49.226;8.108;2023-01-15T14:03:34;4.00;;;1.50;;
4519;SDS011;2272;49.226;8.108;2023-01-15T14:06:03;6.10;;;1.70;;
4519;SDS011;2272;49.226;8.108;2023-01-15T14:08:38;9.13;;;1.93;;
4519;SDS011;2272;49.226;8.108;2023-01-15T14:14:16;15.63;;;7.23;;
4519;SDS011;2272;49.226;8.108;2023-01-15T14:17:04;13.17;;;7.53;;
4519;SDS011;2272;49.226;8.108;2023-01-15T14:19:50;15.37;;;7.47;;
4519;SDS011;2272;49.226;8.108;2023-01-15T14:22:34;5.40;;;4.57;;
4519;SDS011;2272;49.226;8.108;2023-01-15T14:25:20;13.40;;;6.60;;
4519;SDS011;2272;49.226;8.108;2023-01-15T14:28:05;9.87;;;5.93;;
4519;SDS011;2272;49.226;8.108;2023-01-15T14:30:57;15.73;;;8.10;;
4519;SDS011;2272;49.226;8.108;2023-01-15T14:33:41;1.67;;;1.47;;
4519;SDS011;2272;49.226;8.108;2023-01-15T14:36:18;1.30;;;1.20;;
4519;SDS011;2272;49.226;8.108;2023-01-15T14:38:50;2.73;;;1.10;;
4519;SDS011;2272;49.226;8.108;2023-01-15T14:41:24;2.53;;;1.33;;
4519;SDS011;2272;49.226;8.108;2023-01-15T14:43:53;3.13;;;1.53;;
4519;SDS011;2272;49.226;8.108;2023-01-15T14:46:22;2.07;;;1.50;;
4519;SDS011;2272;49.226;8.108;2023-01-15T14:48:52;4.83;;;2.40;;
4519;SDS011;2272;49.226;8.108;2023-01-15T14:51:21;2.43;;;1.83;;
4519;SDS011;2272;49.226;8.108;2023-01-15T14:53:51;1.50;;;1.40;;
4519;SDS011;2272;49.226;8.108;2023-01-15T14:56:23;2.60;;;1.70;;
4519;SDS011;2272;49.226;8.108;2023-01-15T14:58:57;13.67;;;1.67;;
4519;SDS011;2272;49.226;8.108;2023-01-15T15:01:38;3.23;;;1.60;;
4519;SDS011;2272;49.226;8.108;2023-01-15T15:04:10;4.57;;;2.27;;
4519;SDS011;2272;49.226;8.108;2023-01-15T15:06:45;2.57;;;2.37;;
4519;SDS011;2272;49.226;8.108;2023-01-15T15:09:18;3.63;;;2.87;;
4519;SDS011;2272;49.226;8.108;2023-01-15T15:11:56;4.70;;;1.80;;
4519;SDS011;2272;49.226;8.108;2023-01-15T15:14:47;2.87;;;2.10;;
4519;SDS011;2272;49.226;8.108;2023-01-15T15:17:24;7.17;;;4.50;;
4519;SDS011;2272;49.226;8.108;2023-01-15T15:19:59;13.93;;;2.90;;
4519;SDS011;2272;49.226;8.108;2023-01-15T15:22:42;3.80;;;2.43;;
4519;SDS011;2272;49.226;8.108;2023-01-15T15:25:16;1.27;;;1.17;;
4519;SDS011;2272;49.226;8.108;2023-01-15T15:27:47;2.90;;;1.50;;
4519;SDS011;2272;49.226;8.108;2023-01-15T15:30:15;7.23;;;1.83;;
4519;SDS011;2272;49.226;8.108;2023-01-15T15:32:44;4.50;;;1.50;;
4519;SDS011;2272;49.226;8.108;2023-01-15T15:35:17;1.93;;;1.60;;
4519;SDS011;2272;49.226;8.108;2023-01-15T15:37:51;3.30;;;2.03;;
4519;SDS011;2272;49.226;8.108;2023-01-15T15:40:19;5.97;;;3.60;;
4519;SDS011;2272;49.226;8.108;2023-01-15T15:42:49;7.87;;;3.10;;
4519;SDS011;2272;49.226;8.108;2023-01-15T15:45:38;4.77;;;3.00;;
4519;SDS011;2272;49.226;8.108;2023-01-15T15:48:33;12.87;;;5.10;;